Time;durP1;ratioP1;P1;durP2;ratioP2;P2;SDS_P1;SDS_P2;PMS_P1;PMS_P2;Temp;Humidity;BMP_temperature;BMP_pressure;BME280_temperature;BME280_humidity;BME280_pressure;Samples;Min_cycle;Max_cycle;Signal;HPM_P1;HPM_P2
2023/10/24 00:00:12;;;;;;;45.27;24.13;;;;;;;7.89;100.00;100053.53;4247740;28;20557;-67
2023/10/24 00:02:39;;;;;;;38.10;22.43;;;;;;;8.16;100.00;100058.25;4250987;28;20287;-66
2023/10/24 00:05:06;;;;;;;47.67;25.70;;;;;;;8.20;100.00;100043.47;4255039;28;20226;-64
2023/10/24 00:07:34;;;;;;;43.20;24.90;;;;;;;8.21;100.00;100052.44;4247262;28;20243;-65
2023/10/24 00:10:01;;;;;;;48.70;24.97;;;;;;;8.18;100.00;100058.09;4259619;28;20230;-65
2023/10/24 00:12:28;;;;;;;44.23;24.73;;;;;;;8.34;100.00;100058.38;4249103;28;20243;-64
2023/10/24 00:14:56;;;;;;;41.17;24.67;;;;;;;8.50;100.00;100057.84;4240572;28;21078;-66
2023/10/24 00:17:23;;;;;;;43.97;24.00;;;;;;;8.36;100.00;100045.63;4249110;28;20238;-65
2023/10/24 00:19:50;;;;;;;42.90;24.80;;;;;;;8.38;100.00;100050.88;4251655;28;21883;-65
2023/10/24 00:22:17;;;;;;;44.30;24.43;;;;;;;8.20;100.00;100048.03;4244682;28;22449;-67
2023/10/24 00:24:43;;;;;;;43.03;23.23;;;;;;;8.12;100.00;100054.13;4243287;28;20226;-65
2023/10/24 00:27:10;;;;;;;41.93;23.97;;;;;;;8.17;100.00;100051.00;4252946;28;20309;-63
2023/10/24 00:29:37;;;;;;;43.63;25.47;;;;;;;8.42;100.00;100052.31;4247416;28;20245;-65
2023/10/24 00:32:04;;;;;;;40.23;23.43;;;;;;;8.49;100.00;100053.47;4239104;28;20234;-66
2023/10/24 00:34:30;;;;;;;43.20;24.33;;;;;;;8.35;100.00;100043.91;4242892;28;20230;-65
2023/10/24 00:36:57;;;;;;;43.13;24.20;;;;;;;8.32;100.00;100035.25;4249391;28;20250;-66
2023/10/24 00:39:23;;;;;;;43.90;24.93;;;;;;;8.22;100.00;100046.91;4245472;28;20246;-65
2023/10/24 00:41:50;;;;;;;47.43;23.97;;;;;;;8.18;100.00;100053.56;4244568;28;22304;-66
2023/10/24 00:44:17;;;;;;;35.90;21.33;;;;;;;8.10;100.00;100053.44;4250607;28;22309;-64
2023/10/24 00:46:43;;;;;;;37.10;21.50;;;;;;;8.06;100.00;100049.28;4238076;28;21163;-67
2023/10/24 00:49:10;;;;;;;43.57;23.23;;;;;;;8.11;100.00;100057.84;4240459;28;20424;-65
2023/10/24 00:51:38;;;;;;;40.60;22.90;;;;;;;8.07;100.00;100049.19;4254754;28;22307;-65
2023/10/24 00:54:04;;;;;;;42.47;25.30;;;;;;;8.07;100.00;100059.97;4241225;28;21479;-65
2023/10/24 00:56:31;;;;;;;39.23;23.13;;;;;;;8.14;100.00;100062.94;4241572;28;20233;-64
2023/10/24 00:59:00;;;;;;;47.27;25.13;;;;;;;8.18;100.00;100061.66;4247133;28;20341;-69
2023/10/24 01:01:27;;;;;;;41.73;23.63;;;;;;;8.14;100.00;100065.63;4234416;28;21983;-64
2023/10/24 01:03:56;;;;;;;40.23;22.27;;;;;;;8.13;100.00;100061.22;4241381;28;20710;-64
2023/10/24 01:06:23;;;;;;;40.33;24.17;;;;;;;8.16;100.00;100049.28;4244180;28;20432;-64
2023/10/24 01:08:50;;;;;;;46.47;24.83;;;;;;;8.27;100.00;100054.56;4239601;28;21998;-66
2023/10/24 01:11:17;;;;;;;42.30;22.83;;;;;;;8.13;100.00;100055.00;4217809;28;21162;-66
2023/10/24 01:13:44;;;;;;;38.10;22.77;;;;;;;8.12;100.00;100053.28;4255323;28;20259;-65
2023/10/24 01:16:11;;;;;;;39.90;23.33;;;;;;;8.18;100.00;100055.41;4248684;28;20245;-66
2023/10/24 01:18:37;;;;;;;38.07;21.23;;;;;;;8.15;100.00;100051.16;4249907;28;20359;-65
2023/10/24 01:21:04;;;;;;;37.97;23.20;;;;;;;8.19;100.00;100051.72;4241489;28;22030;-66
2023/10/24 01:23:31;;;;;;;41.83;24.30;;;;;;;8.28;100.00;100047.31;4248765;28;20408;-66
2023/10/24 01:25:58;;;;;;;43.03;26.20;;;;;;;8.19;100.00;100049.91;4250454;28;25724;-64
2023/10/24 01:28:29;;;;;;;40.83;24.30;;;;;;;8.20;100.00;100048.88;4250028;28;20356;-66
2023/10/24 01:30:56;;;;;;;37.33;21.50;;;;;;;8.18;100.00;100048.19;4256268;28;20271;-65
2023/10/24 01:33:22;;;;;;;38.90;22.60;;;;;;;8.24;100.00;100044.91;4248666;28;20235;-69
2023/10/24 01:35:49;;;;;;;45.83;23.80;;;;;;;8.17;100.00;100049.19;4247048;28;20241;-65
2023/10/24 01:38:16;;;;;;;40.40;24.30;;;;;;;8.19;100.00;100043.63;4249631;28;20360;-64
2023/10/24 01:40:43;;;;;;;37.63;22.13;;;;;;;8.30;100.00;100039.94;4257786;28;20239;-65
2023/10/24 01:43:09;;;;;;;38.80;22.60;;;;;;;8.34;100.00;100041.38;4248967;28;23591;-67
2023/10/24 01:45:36;;;;;;;44.30;24.97;;;;;;;8.23;100.00;100031.59;4246519;28;20305;-64
2023/10/24 01:48:03;;;;;;;43.20;24.57;;;;;;;8.21;100.00;100036.25;4253483;28;22479;-65
2023/10/24 01:50:29;;;;;;;43.67;25.27;;;;;;;8.22;100.00;100029.88;4249373;28;20305;-64
2023/10/24 01:52:58;;;;;;;38.27;23.37;;;;;;;8.31;100.00;100028.16;4247044;28;20365;-66
2023/10/24 01:55:25;;;;;;;50.30;26.00;;;;;;;8.31;100.00;100029.00;4247808;28;21201;-68
2023/10/24 01:57:51;;;;;;;43.43;24.33;;;;;;;8.32;100.00;100027.16;4258774;28;21860;-65
2023/10/24 02:00:18;;;;;;;49.50;24.30;;;;;;;8.38;100.00;100018.50;4250312;28;20414;-64
2023/10/24 02:02:45;;;;;;;42.87;24.00;;;;;;;8.49;100.00;100031.00;4249442;28;20234;-65
2023/10/24 02:05:12;;;;;;;48.60;25.60;;;;;;;8.73;100.00;100033.22;4253943;28;21142;-66
2023/10/24 02:07:38;;;;;;;41.70;25.30;;;;;;;8.66;100.00;100027.59;4247693;28;22352;-66
2023/10/24 02:10:06;;;;;;;43.10;25.17;;;;;;;8.55;100.00;100033.13;4251991;28;20233;-64
2023/10/24 02:12:34;;;;;;;39.27;22.30;;;;;;;8.48;100.00;100023.91;4233329;28;20417;-64
2023/10/24 02:15:01;;;;;;;41.77;24.33;;;;;;;8.46;100.00;100028.59;4259415;28;21159;-64
2023/10/24 02:17:27;;;;;;;43.23;23.67;;;;;;;8.60;100.00;100027.31;4250840;28;20243;-65
2023/10/24 02:19:54;;;;;;;38.10;23.00;;;;;;;8.45;100.00;100022.31;4252482;28;20248;-64
2023/10/24 02:22:20;;;;;;;40.57;23.23;;;;;;;8.48;100.00;100027.47;4256878;28;20234;-66
2023/10/24 02:24:47;;;;;;;49.83;25.23;;;;;;;8.22;100.00;100022.63;4244752;28;20919;-66
2023/10/24 02:27:14;;;;;;;44.73;24.10;;;;;;;8.27;100.00;100024.91;4245176;28;20234;-64
2023/10/24 02:29:40;;;;;;;40.70;24.03;;;;;;;8.59;100.00;100023.75;4252272;28;20539;-63
2023/10/24 02:32:07;;;;;;;44.03;23.93;;;;;;;8.52;100.00;100026.19;4251072;28;20230;-67
2023/10/24 02:34:34;;;;;;;41.63;23.97;;;;;;;8.44;100.00;100028.72;4253206;28;20229;-63
2023/10/24 02:37:01;;;;;;;39.90;21.87;;;;;;;8.36;100.00;100029.44;4245613;28;21159;-65
2023/10/24 02:39:27;;;;;;;41.23;23.60;;;;;;;8.38;100.00;100029.28;4248317;28;20234;-67
2023/10/24 02:41:54;;;;;;;46.03;25.43;;;;;;;8.53;100.00;100025.19;4248502;28;20311;-63
2023/10/24 02:44:20;;;;;;;42.53;25.20;;;;;;;8.58;100.00;100030.16;4250919;28;20243;-65
2023/10/24 02:46:47;;;;;;;42.27;23.90;;;;;;;8.73;100.00;100035.94;4255284;28;20476;-64
2023/10/24 02:49:14;;;;;;;46.90;25.10;;;;;;;8.83;100.00;100031.38;4247453;28;20292;-65
2023/10/24 02:51:42;;;;;;;42.70;25.50;;;;;;;8.68;100.00;100024.72;4248266;28;20348;-65
2023/10/24 02:54:08;;;;;;;46.67;25.23;;;;;;;8.53;100.00;100022.50;4253633;28;20245;-65
2023/10/24 02:56:35;;;;;;;44.33;26.13;;;;;;;8.66;100.00;100015.94;4227728;28;20980;-65
2023/10/24 02:59:01;;;;;;;48.30;25.60;;;;;;;8.74;100.00;100016.06;4253925;28;21437;-65
2023/10/24 03:01:28;;;;;;;55.07;26.67;;;;;;;8.65;100.00;100014.22;4249501;28;21551;-66
2023/10/24 03:03:55;;;;;;;41.77;24.73;;;;;;;8.62;100.00;100017.22;4245716;28;20406;-66
2023/10/24 03:06:21;;;;;;;40.53;25.47;;;;;;;8.80;100.00;100020.03;4250506;28;21647;-65
2023/10/24 03:08:48;;;;;;;48.27;27.80;;;;;;;8.62;100.00;100011.81;4247486;28;20261;-66
2023/10/24 03:11:22;;;;;;;48.33;27.23;;;;;;;8.54;100.00;100015.22;4255814;28;20237;-66
2023/10/24 03:13:51;;;;;;;51.80;28.37;;;;;;;8.52;100.00;100009.16;4252936;28;20226;-64
2023/10/24 03:16:18;;;;;;;49.87;26.97;;;;;;;8.63;100.00;100013.53;4234459;28;20230;-65
2023/10/24 03:18:44;;;;;;;42.03;25.37;;;;;;;8.76;100.00;100007.81;4252868;28;20281;-64
2023/10/24 03:21:12;;;;;;;43.53;25.87;;;;;;;8.84;100.00;99999.81;4244570;28;20276;-65
2023/10/24 03:23:46;;;;;;;42.80;23.67;;;;;;;8.90;100.00;100004.66;4252901;28;20238;-65
2023/10/24 03:26:12;;;;;;;51.73;27.07;;;;;;;8.96;100.00;99998.66;4247062;28;25676;-65
2023/10/24 03:28:39;;;;;;;41.60;24.53;;;;;;;9.14;100.00;100011.41;4246242;28;20568;-65
2023/10/24 03:31:08;;;;;;;44.47;25.00;;;;;;;9.07;100.00;100007.56;4249107;28;21905;-65
2023/10/24 03:33:34;;;;;;;40.70;25.00;;;;;;;9.09;100.00;100002.88;4248005;28;23648;-64
2023/10/24 03:36:01;;;;;;;45.23;27.30;;;;;;;9.13;100.00;100009.69;4247357;28;20230;-66
2023/10/24 03:38:28;;;;;;;50.00;26.73;;;;;;;9.04;100.00;100001.47;4243865;28;20464;-66
2023/10/24 03:40:55;;;;;;;42.40;24.03;;;;;;;9.12;100.00;100016.09;4252779;28;22406;-65
2023/10/24 03:43:22;;;;;;;46.63;25.70;;;;;;;9.18;100.00;100010.91;4242638;28;20577;-64
2023/10/24 03:45:48;;;;;;;44.93;25.00;;;;;;;9.24;100.00;100008.66;4256697;28;20230;-66
2023/10/24 03:48:15;;;;;;;50.60;24.90;;;;;;;9.20;100.00;100005.38;4253302;28;20238;-63
2023/10/24 03:50:42;;;;;;;47.40;26.43;;;;;;;9.16;100.00;99995.88;4251030;28;21755;-66
2023/10/24 03:53:09;;;;;;;52.17;27.47;;;;;;;9.16;100.00;99990.47;4252570;28;20584;-64
2023/10/24 03:55:35;;;;;;;54.00;28.07;;;;;;;9.04;100.00;99984.41;4248279;28;20231;-66
2023/10/24 03:58:02;;;;;;;47.50;26.57;;;;;;;9.08;100.00;99990.34;4246111;28;20237;-66
2023/10/24 04:00:29;;;;;;;45.97;25.53;;;;;;;9.13;100.00;99988.91;4248042;28;20258;-66
2023/10/24 04:02:56;;;;;;;43.17;25.93;;;;;;;9.02;100.00;99987.25;4229304;28;20618;-65
2023/10/24 04:05:23;;;;;;;48.00;27.13;;;;;;;9.00;100.00;99980.31;4253266;28;25729;-64
2023/10/24 04:07:50;;;;;;;49.80;27.00;;;;;;;8.97;100.00;99977.91;4246251;28;23476;-66
2023/10/24 04:10:16;;;;;;;52.13;28.20;;;;;;;8.96;100.00;99971.66;4244824;28;20378;-66
2023/10/24 04:12:43;;;;;;;51.43;26.70;;;;;;;8.97;100.00;99969.81;4246081;28;21752;-63
2023/10/24 04:15:10;;;;;;;54.57;28.80;;;;;;;8.90;100.00;99964.16;4252744;28;20246;-66
2023/10/24 04:17:37;;;;;;;48.87;27.20;;;;;;;8.81;100.00;99962.34;4253586;28;21350;-64
2023/10/24 04:20:06;;;;;;;47.23;27.47;;;;;;;8.81;100.00;99948.84;4248503;28;20283;-64
2023/10/24 04:22:34;;;;;;;50.33;27.63;;;;;;;8.70;100.00;99947.19;4250367;28;20235;-65
2023/10/24 04:25:01;;;;;;;53.07;28.67;;;;;;;8.54;100.00;99947.78;4250897;28;22045;-67
2023/10/24 04:27:28;;;;;;;50.13;27.70;;;;;;;8.44;100.00;99939.69;4244353;28;25057;-65
2023/10/24 04:29:54;;;;;;;61.33;30.53;;;;;;;8.36;100.00;99939.56;4250608;28;20313;-65
2023/10/24 04:32:21;;;;;;;52.90;28.17;;;;;;;8.50;100.00;99932.91;4248921;28;20230;-67
2023/10/24 04:34:51;;;;;;;61.97;31.90;;;;;;;8.51;100.00;99935.44;4241509;28;22148;-65
2023/10/24 04:37:18;;;;;;;49.73;26.60;;;;;;;8.52;100.00;99933.63;4247758;28;20238;-67
2023/10/24 04:39:45;;;;;;;53.77;29.43;;;;;;;8.48;100.00;99942.97;4252110;28;20230;-66
2023/10/24 04:42:11;;;;;;;59.17;30.40;;;;;;;8.54;100.00;99934.31;4244368;28;20331;-67
2023/10/24 04:44:38;;;;;;;54.67;28.97;;;;;;;8.55;100.00;99944.97;4242067;28;20234;-64
2023/10/24 04:47:05;;;;;;;59.23;30.30;;;;;;;8.53;100.00;99948.81;4249026;28;20333;-64
2023/10/24 04:49:32;;;;;;;59.33;30.70;;;;;;;8.60;100.00;99954.44;4249505;28;21129;-65
2023/10/24 04:51:59;;;;;;;53.63;30.00;;;;;;;8.60;100.00;99949.94;4243524;28;20309;-65
2023/10/24 04:54:26;;;;;;;54.77;29.07;;;;;;;8.55;100.00;99957.59;4250202;28;20362;-65
2023/10/24 04:56:53;;;;;;;58.20;30.67;;;;;;;8.62;100.00;99961.41;4251755;28;20792;-66
2023/10/24 04:59:20;;;;;;;53.53;28.73;;;;;;;8.68;100.00;99970.75;4248748;28;20230;-66
2023/10/24 05:01:46;;;;;;;54.43;29.40;;;;;;;8.66;100.00;99962.81;4246639;28;20230;-67
2023/10/24 05:04:13;;;;;;;58.20;30.13;;;;;;;8.72;100.00;99974.88;4246921;28;20246;-65
2023/10/24 05:06:39;;;;;;;55.10;30.03;;;;;;;8.71;100.00;99978.56;4245769;28;20228;-65
2023/10/24 05:09:06;;;;;;;53.77;29.23;;;;;;;8.74;100.00;99975.56;4248606;28;21178;-65
2023/10/24 05:11:35;;;;;;;54.93;29.20;;;;;;;8.74;100.00;99977.44;4252707;28;21667;-66
2023/10/24 05:14:02;;;;;;;53.57;29.93;;;;;;;8.76;100.00;99986.25;4248223;28;20319;-66
2023/10/24 05:16:29;;;;;;;63.20;31.37;;;;;;;8.77;100.00;99990.59;4259276;28;23074;-64
2023/10/24 05:18:55;;;;;;;51.13;29.57;;;;;;;8.82;100.00;99985.66;4250520;28;20238;-66
2023/10/24 05:21:22;;;;;;;50.53;29.63;;;;;;;8.81;100.00;99990.19;4241575;28;20537;-66
2023/10/24 05:23:48;;;;;;;63.93;34.83;;;;;;;8.73;100.00;99987.34;4257866;28;20241;-64
2023/10/24 05:26:15;;;;;;;63.20;30.70;;;;;;;8.60;100.00;99985.00;4255726;28;20301;-66
2023/10/24 05:28:42;;;;;;;57.70;29.17;;;;;;;8.69;100.00;99988.66;4258618;28;20296;-66
2023/10/24 05:31:09;;;;;;;51.43;29.33;;;;;;;8.73;100.00;99992.75;4247915;28;21043;-65
2023/10/24 05:33:36;;;;;;;57.87;32.17;;;;;;;8.55;100.00;100001.63;4269671;28;20305;-66
2023/10/24 05:36:03;;;;;;;62.33;31.33;;;;;;;8.52;100.00;100001.91;4268434;28;20364;-69
2023/10/24 05:38:29;;;;;;;52.90;29.73;;;;;;;8.55;100.00;100012.41;4273130;28;20242;-64
2023/10/24 05:40:56;;;;;;;50.90;27.63;;;;;;;8.62;100.00;100015.38;4260354;28;20339;-68
2023/10/24 05:43:23;;;;;;;59.17;30.03;;;;;;;8.61;100.00;100010.13;4263333;28;23246;-66
2023/10/24 05:45:50;;;;;;;50.50;28.57;;;;;;;8.71;100.00;100006.41;4279808;28;20233;-65
2023/10/24 05:48:17;;;;;;;61.10;27.43;;;;;;;8.67;100.00;100020.31;4262589;28;20222;-67
2023/10/24 05:50:44;;;;;;;62.33;28.63;;;;;;;8.71;100.00;100028.00;4254074;28;22246;-65
2023/10/24 05:53:11;;;;;;;55.67;26.53;;;;;;;8.76;100.00;100032.13;4271199;28;20764;-65
2023/10/24 05:55:41;;;;;;;54.27;26.80;;;;;;;8.70;100.00;100023.59;4268614;28;21594;-64
2023/10/24 05:58:07;;;;;;;56.07;26.53;;;;;;;8.57;100.00;100020.34;4254777;28;20234;-67
2023/10/24 06:00:34;;;;;;;66.37;26.53;;;;;;;8.36;100.00;100026.75;4243397;28;20230;-66
2023/10/24 06:03:04;;;;;;;79.47;28.93;;;;;;;8.42;100.00;100019.94;4243133;28;21809;-64
2023/10/24 06:05:31;;;;;;;65.60;28.93;;;;;;;8.40;100.00;100024.63;4260023;28;20245;-66
2023/10/24 06:07:58;;;;;;;72.67;28.70;;;;;;;8.41;100.00;100020.94;4250671;28;20591;-68
2023/10/24 06:10:25;;;;;;;61.20;27.33;;;;;;;8.54;100.00;100016.09;4253063;28;20244;-64
2023/10/24 06:12:51;;;;;;;76.23;30.00;;;;;;;8.56;100.00;100022.22;4263800;28;20234;-66
2023/10/24 06:15:18;;;;;;;68.73;27.93;;;;;;;8.48;100.00;100016.69;4245742;28;22901;-66
2023/10/24 06:17:45;;;;;;;93.27;31.03;;;;;;;8.49;100.00;100020.22;4260474;28;21877;-66
2023/10/24 06:20:11;;;;;;;84.93;31.47;;;;;;;8.39;100.00;100014.81;4245527;28;21024;-69
2023/10/24 06:22:38;;;;;;;63.57;28.17;;;;;;;8.33;100.00;100000.06;4254153;28;20242;-66
2023/10/24 06:25:05;;;;;;;98.00;31.53;;;;;;;8.31;100.00;99996.63;4226474;28;22505;-68
2023/10/24 06:27:31;;;;;;;84.43;29.47;;;;;;;8.26;100.00;99988.13;4250342;28;20520;-68
2023/10/24 06:29:58;;;;;;;78.73;30.03;;;;;;;8.27;100.00;99991.69;4249883;28;21192;-65
2023/10/24 06:32:24;;;;;;;75.83;29.67;;;;;;;8.34;100.00;99987.44;4250869;28;21098;-65
2023/10/24 06:34:51;;;;;;;58.10;26.03;;;;;;;8.45;100.00;99986.41;4256064;28;20684;-65
2023/10/24 06:37:18;;;;;;;72.17;29.40;;;;;;;8.44;100.00;99984.72;4245328;28;23006;-67
2023/10/24 06:39:44;;;;;;;68.60;28.77;;;;;;;8.52;100.00;99983.00;4239072;28;25355;-66
2023/10/24 06:42:11;;;;;;;55.13;25.57;;;;;;;8.69;100.00;99976.00;4255663;28;20304;-65
2023/10/24 06:44:37;;;;;;;61.57;26.40;;;;;;;8.82;100.00;99977.53;4255409;28;20260;-66
2023/10/24 06:47:04;;;;;;;63.53;27.10;;;;;;;8.92;100.00;99981.03;4245368;28;21037;-67
2023/10/24 06:49:31;;;;;;;62.87;27.77;;;;;;;8.98;100.00;99982.31;4250446;28;22131;-66
2023/10/24 06:51:58;;;;;;;58.47;26.70;;;;;;;8.93;100.00;99980.03;4254333;28;21502;-66
2023/10/24 06:54:24;;;;;;;63.33;27.13;;;;;;;8.89;100.00;99981.34;4244494;28;20292;-66
2023/10/24 06:56:51;;;;;;;70.50;27.33;;;;;;;8.96;100.00;99974.38;4249373;28;22025;-69
2023/10/24 06:59:17;;;;;;;51.87;25.07;;;;;;;9.08;100.00;99984.97;4241690;28;20764;-66
2023/10/24 07:01:44;;;;;;;67.00;27.80;;;;;;;9.00;100.00;99985.72;4252380;28;21819;-64
2023/10/24 07:04:11;;;;;;;64.13;28.93;;;;;;;9.01;100.00;99990.13;4252897;28;20277;-69
2023/10/24 07:06:37;;;;;;;61.60;28.40;;;;;;;9.09;100.00;99998.34;4250396;28;21192;-66
2023/10/24 07:09:04;;;;;;;53.93;28.37;;;;;;;9.31;100.00;99994.38;4245658;28;20508;-65
2023/10/24 07:11:31;;;;;;;72.10;30.73;;;;;;;9.23;100.00;99999.66;4252481;28;20554;-68
2023/10/24 07:13:57;;;;;;;69.43;30.23;;;;;;;9.18;100.00;99986.63;4253168;28;20311;-67
2023/10/24 07:16:25;;;;;;;75.17;30.17;;;;;;;9.30;100.00;99995.38;4253313;28;20236;-65
2023/10/24 07:18:51;;;;;;;72.47;31.73;;;;;;;9.29;100.00;100001.78;4248380;28;20628;-68
2023/10/24 07:21:18;;;;;;;69.37;30.70;;;;;;;9.34;100.00;99995.91;4259135;28;21134;-66
2023/10/24 07:23:45;;;;;;;70.00;31.90;;;;;;;9.29;100.00;99998.22;4260307;28;21339;-69
2023/10/24 07:26:12;;;;;;;78.17;31.57;;;;;;;9.35;100.00;99994.91;4242639;28;20241;-67
2023/10/24 07:28:39;;;;;;;77.57;32.53;;;;;;;9.37;100.00;99992.94;4259034;28;20237;-68
2023/10/24 07:31:06;;;;;;;81.83;32.53;;;;;;;9.49;100.00;99994.41;4261962;28;21422;-65
2023/10/24 07:33:32;;;;;;;69.03;31.90;;;;;;;9.47;100.00;99995.56;4234439;28;20263;-69
2023/10/24 07:36:04;;;;;;;80.53;32.53;;;;;;;9.53;100.00;99984.16;4253026;28;20811;-70
2023/10/24 07:38:31;;;;;;;68.03;31.40;;;;;;;9.69;100.00;99997.00;4253289;28;20235;-68
2023/10/24 07:40:59;;;;;;;74.60;33.67;;;;;;;9.78;100.00;99996.06;4252587;28;20234;-67
2023/10/24 07:43:25;;;;;;;73.93;32.83;;;;;;;9.78;100.00;100000.63;4259679;28;20421;-71
2023/10/24 07:45:55;;;;;;;80.00;33.20;;;;;;;9.73;100.00;99998.38;4260936;28;22880;-66
2023/10/24 07:48:24;;;;;;;78.63;33.80;;;;;;;9.79;100.00;99995.06;4278141;28;23159;-68
2023/10/24 07:50:52;;;;;;;62.90;30.27;;;;;;;10.11;100.00;99998.25;4246960;28;20297;-67
2023/10/24 07:53:22;;;;;;;78.13;31.57;;;;;;;10.42;100.00;100006.00;4259845;28;20337;-66
2023/10/24 07:55:49;;;;;;;75.03;31.17;;;;;;;10.54;100.00;99998.44;4253097;28;20229;-63
2023/10/24 07:58:17;;;;;;;60.03;30.10;;;;;;;10.74;100.00;99991.84;4248168;28;20687;-64
2023/10/24 08:00:45;;;;;;;58.87;29.47;;;;;;;10.68;100.00;99965.41;4247940;28;22248;-68
2023/10/24 08:03:13;;;;;;;60.17;29.03;;;;;;;10.76;100.00;99961.88;4247048;28;20238;-66
2023/10/24 08:05:40;;;;;;;67.00;29.73;;;;;;;10.36;100.00;99947.03;4270589;28;20585;-67
2023/10/24 08:08:07;;;;;;;63.47;28.97;;;;;;;10.38;100.00;99935.13;4248914;28;21730;-69
2023/10/24 08:10:34;;;;;;;60.07;27.23;;;;;;;10.41;100.00;99936.66;4255244;28;20272;-65
2023/10/24 08:13:01;;;;;;;56.67;27.63;;;;;;;10.30;100.00;99933.16;4256154;28;23296;-67
2023/10/24 08:15:28;;;;;;;63.67;28.87;;;;;;;10.26;100.00;99945.31;4251134;28;20246;-67
2023/10/24 08:17:55;;;;;;;60.97;29.43;;;;;;;10.31;100.00;99942.97;4263468;28;21181;-67
2023/10/24 08:20:22;;;;;;;66.90;30.57;;;;;;;10.29;100.00;99931.44;4243992;28;20315;-67
2023/10/24 08:22:49;;;;;;;60.40;28.63;;;;;;;10.49;100.00;99915.06;4272495;28;20242;-67
2023/10/24 08:25:16;;;;;;;51.97;26.60;;;;;;;10.39;100.00;99890.78;4247978;28;25394;-65
2023/10/24 08:27:45;;;;;;;54.90;26.30;;;;;;;10.41;100.00;99877.94;4253252;28;20374;-66
2023/10/24 08:30:12;;;;;;;52.47;26.53;;;;;;;10.50;100.00;99892.38;4253257;28;20225;-67
2023/10/24 08:32:39;;;;;;;60.13;27.60;;;;;;;10.57;100.00;99896.16;4249274;28;20993;-67
2023/10/24 08:35:07;;;;;;;55.67;26.67;;;;;;;10.69;100.00;99898.56;4254160;28;20937;-68
2023/10/24 08:37:35;;;;;;;56.20;26.63;;;;;;;10.72;100.00;99896.38;4260588;28;21773;-67
2023/10/24 08:40:02;;;;;;;53.03;25.87;;;;;;;10.74;100.00;99901.63;4253709;28;20242;-67
2023/10/24 08:42:30;;;;;;;57.83;26.87;;;;;;;10.82;100.00;99903.53;4249653;28;20229;-65
2023/10/24 08:44:59;;;;;;;60.37;26.70;;;;;;;10.79;100.00;99893.91;4251010;28;20233;-69
2023/10/24 08:47:28;;;;;;;57.97;26.90;;;;;;;10.86;100.00;99897.66;4262495;28;20234;-69
2023/10/24 08:49:55;;;;;;;49.17;26.00;;;;;;;11.14;100.00;99902.81;4259368;28;20613;-69
2023/10/24 08:52:22;;;;;;;50.17;26.13;;;;;;;11.64;100.00;99898.34;4250574;28;20573;-69
2023/10/24 08:55:01;;;;;;;49.87;25.50;;;;;;;12.40;99.14;99905.47;4258850;28;20340;-68
2023/10/24 08:57:30;;;;;;;42.43;22.43;;;;;;;12.68;96.35;99916.78;4266527;28;20238;-68
2023/10/24 08:59:58;;;;;;;49.57;22.20;;;;;;;12.58;95.59;99921.56;4269911;28;20424;-67
2023/10/24 09:02:27;;;;;;;42.97;21.33;;;;;;;12.55;95.09;99928.19;4269579;28;20226;-68
2023/10/24 09:04:54;;;;;;;42.20;21.40;;;;;;;12.71;95.94;99916.44;4276594;28;22860;-69
2023/10/24 09:07:21;;;;;;;35.23;19.23;;;;;;;13.09;94.31;99923.94;4277741;28;23196;-67
2023/10/24 09:09:48;;;;;;;36.73;18.97;;;;;;;13.16;91.85;99938.53;4260633;28;20303;-68
2023/10/24 09:12:15;;;;;;;35.47;17.30;;;;;;;12.86;90.38;99926.56;4293076;28;25992;-68
2023/10/24 09:14:46;;;;;;;30.70;16.10;;;;;;;12.84;89.34;99930.31;4291276;28;21602;-69
2023/10/24 09:17:21;;;;;;;32.77;15.23;;;;;;;13.04;88.54;99929.91;4255216;28;20847;-68
2023/10/24 09:19:48;;;;;;;30.70;15.13;;;;;;;13.08;87.42;99924.97;4282339;28;20684;-68
2023/10/24 09:22:16;;;;;;;35.77;16.27;;;;;;;13.41;85.78;99925.69;4276134;28;23473;-69
2023/10/24 09:24:47;;;;;;;30.47;16.80;;;;;;;14.07;83.22;99911.59;4257648;28;20509;-67
2023/10/24 09:27:15;;;;;;;36.80;15.30;;;;;;;13.98;82.22;99900.97;4257236;28;22582;-68
2023/10/24 09:29:41;;;;;;;27.23;14.83;;;;;;;13.83;82.79;99890.03;4264489;28;20307;-68
2023/10/24 09:32:15;;;;;;;31.70;16.40;;;;;;;14.03;81.56;99879.50;4253596;28;25156;-69
2023/10/24 09:34:46;;;;;;;35.70;15.37;;;;;;;14.26;80.54;99874.84;4278314;28;20454;-69
2023/10/24 09:37:14;;;;;;;34.40;15.13;;;;;;;14.04;80.83;99870.31;4246978;28;20604;-67
2023/10/24 09:40:00;;;;;;;27.00;14.60;;;;;;;14.30;81.02;99871.78;4235237;28;21476;-71
2023/10/24 09:42:29;;;;;;;29.17;14.43;;;;;;;14.41;80.14;99864.00;4256874;28;20226;-66
2023/10/24 09:45:06;;;;;;;34.10;13.27;;;;;;;14.80;77.26;99867.50;4260792;28;20284;-69
2023/10/24 09:47:37;;;;;;;25.90;13.53;;;;;;;15.11;75.99;99868.28;4275975;28;20503;-72
2023/10/24 09:50:09;;;;;;;30.50;13.97;;;;;;;14.55;77.19;99853.28;4262292;28;20233;-70
2023/10/24 09:52:38;;;;;;;31.33;13.37;;;;;;;14.62;77.88;99851.50;4258556;28;20745;-70
2023/10/24 09:55:05;;;;;;;27.90;13.00;;;;;;;15.00;77.03;99834.19;4258156;28;20229;-71
2023/10/24 09:57:33;;;;;;;33.33;13.60;;;;;;;14.72;76.32;99824.00;4281954;28;20311;-70
2023/10/24 10:00:03;;;;;;;23.43;12.40;;;;;;;14.79;76.25;99824.91;4239107;28;20246;-68
2023/10/24 10:02:30;;;;;;;21.83;11.90;;;;;;;14.96;75.04;99811.09;4257959;28;20246;-70
2023/10/24 10:04:57;;;;;;;26.83;12.27;;;;;;;15.03;75.15;99798.38;4235563;28;20646;-73
2023/10/24 10:07:25;;;;;;;21.80;10.93;;;;;;;14.27;77.00;99797.59;4237331;28;20226;-67
2023/10/24 10:09:53;;;;;;;23.90;12.20;;;;;;;14.25;78.61;99787.94;4263324;28;20565;-66
2023/10/24 10:12:21;;;;;;;22.20;11.57;;;;;;;14.42;76.90;99770.38;4255136;28;21447;-69
2023/10/24 10:15:02;;;;;;;18.73;10.87;;;;;;;14.25;77.27;99775.16;4263477;28;20312;-67
2023/10/24 10:17:42;;;;;;;22.83;11.23;;;;;;;13.98;78.91;99765.75;4262284;28;20236;-64
2023/10/24 10:20:12;;;;;;;21.80;10.70;;;;;;;14.34;77.83;99772.34;4259842;28;21787;-68
2023/10/24 10:23:01;;;;;;;32.20;13.43;;;;;;;14.39;77.26;99773.47;4269230;28;20709;-69
2023/10/24 10:25:38;;;;;;;19.00;10.60;;;;;;;14.22;77.54;99780.13;4240886;28;21607;-65
2023/10/24 10:28:15;;;;;;;26.13;10.43;;;;;;;14.21;77.66;99790.19;4255679;28;20241;-67
2023/10/24 10:31:25;;;;;;;24.63;10.20;;;;;;;14.12;78.06;99788.56;4254839;28;25931;-71
2023/10/24 10:34:12;;;;;;;22.00;10.53;;;;;;;14.26;77.75;99776.00;4280541;28;20857;-69
2023/10/24 10:36:39;;;;;;;22.03;11.03;;;;;;;14.59;77.02;99772.88;4267179;28;20231;-69
2023/10/24 10:39:10;;;;;;;22.17;9.93;;;;;;;14.79;77.46;99769.59;4244605;28;20235;-76
2023/10/24 10:41:38;;;;;;;24.17;10.30;;;;;;;14.54;76.71;99765.25;4255988;28;21134;-73
2023/10/24 10:44:38;;;;;;;20.53;10.67;;;;;;;14.43;78.35;99750.25;4282246;28;20296;-73
2023/10/24 10:47:12;;;;;;;21.67;9.93;;;;;;;14.63;77.33;99746.09;4263062;28;21723;-73
2023/10/24 10:49:51;;;;;;;20.10;9.40;;;;;;;14.96;75.33;99751.94;4294650;28;20861;-74
2023/10/24 10:52:34;;;;;;;18.17;9.57;;;;;;;15.30;75.19;99744.09;4249088;28;20421;-72
2023/10/24 10:55:43;;;;;;;18.73;8.47;;;;;;;15.22;74.12;99739.66;4283104;28;20637;-75
2023/10/24 10:58:15;;;;;;;18.17;8.40;;;;;;;15.10;74.67;99739.31;4261872;28;22093;-72
2023/10/24 11:00:58;;;;;;;15.17;7.73;;;;;;;15.03;74.84;99747.41;4289090;28;20731;-72
2023/10/24 11:03:39;;;;;;;15.50;6.83;;;;;;;15.07;74.10;99742.41;4240108;28;20276;-77
2023/10/24 11:06:16;;;;;;;15.30;6.53;;;;;;;14.68;74.51;99738.25;4273746;28;20881;-74
2023/10/24 11:08:50;;;;;;;15.43;7.70;;;;;;;14.47;76.22;99731.66;4267705;28;20591;-75
2023/10/24 11:11:20;;;;;;;16.20;6.60;;;;;;;14.47;75.82;99736.28;4252945;28;22276;-71
2023/10/24 11:13:48;;;;;;;14.03;7.07;;;;;;;14.65;76.70;99735.84;4267128;28;20229;-73
2023/10/24 11:16:16;;;;;;;14.17;7.10;;;;;;;14.96;75.83;99732.88;4261238;28;21793;-71
2023/10/24 11:19:03;;;;;;;15.63;7.40;;;;;;;15.29;74.72;99734.25;4258775;28;22883;-72